sensor_id;sensor_type;location;lat;lon;timestamp;P1;durP1;ratioP1;P2;durP2;ratioP2
29380;SDS011;16364;52.490;13.326;2022-09-21T00:01:03;2.30;;;2.10;;
29380;SDS011;16364;52.490;13.326;2022-09-21T00:03:29;4.13;;;2.53;;
29380;SDS011;16364;52.490;13.326;2022-09-21T00:06:00;1.60;;;1.50;;
29380;SDS011;16364;52.490;13.326;2022-09-21T00:08:25;2.93;;;2.73;;
29380;SDS011;16364;52.490;13.326;2022-09-21T00:10:51;2.50;;;1.90;;
29380;SDS011;16364;52.490;13.326;2022-09-21T00:13:16;2.50;;;1.90;;
29380;SDS011;16364;52.490;13.326;2022-09-21T00:15:43;2.43;;;1.90;;
29380;SDS011;16364;52.490;13.326;2022-09-21T00:18:09;1.80;;;1.70;;
29380;SDS011;16364;52.490;13.326;2022-09-21T00:20:34;2.50;;;1.77;;
29380;SDS011;16364;52.490;13.326;2022-09-21T00:22:59;3.20;;;2.00;;
29380;SDS011;16364;52.490;13.326;2022-09-21T00:25:24;2.63;;;2.03;;
29380;SDS011;16364;52.490;13.326;2022-09-21T00:27:50;2.70;;;2.50;;
29380;SDS011;16364;52.490;13.326;2022-09-21T00:30:16;1.90;;;1.80;;
29380;SDS011;16364;52.490;13.326;2022-09-21T00:32:41;2.10;;;1.90;;
29380;SDS011;16364;52.490;13.326;2022-09-21T00:35:07;2.47;;;2.27;;
29380;SDS011;16364;52.490;13.326;2022-09-21T00:37:33;1.90;;;1.80;;
29380;SDS011;16364;52.490;13.326;2022-09-21T00:39:58;2.53;;;2.30;;
29380;SDS011;16364;52.490;13.326;2022-09-21T00:44:52;2.17;;;1.97;;
29380;SDS011;16364;52.490;13.326;2022-09-21T00:47:18;2.97;;;1.80;;
29380;SDS011;16364;52.490;13.326;2022-09-21T00:49:45;2.67;;;2.47;;
29380;SDS011;16364;52.490;13.326;2022-09-21T00:52:13;2.47;;;2.00;;
29380;SDS011;16364;52.490;13.326;2022-09-21T00:54:40;2.03;;;1.93;;
29380;SDS011;16364;52.490;13.326;2022-09-21T00:57:07;2.20;;;2.00;;
29380;SDS011;16364;52.490;13.326;2022-09-21T00:59:34;2.73;;;2.07;;
29380;SDS011;16364;52.490;13.326;2022-09-21T01:01:59;3.70;;;2.00;;
29380;SDS011;16364;52.490;13.326;2022-09-21T01:04:25;7.77;;;2.33;;
29380;SDS011;16364;52.490;13.326;2022-09-21T01:06:52;3.17;;;1.87;;
29380;SDS011;16364;52.490;13.326;2022-09-21T01:09:18;2.43;;;2.20;;
29380;SDS011;16364;52.490;13.326;2022-09-21T01:11:50;2.47;;;1.87;;
29380;SDS011;16364;52.490;13.326;2022-09-21T01:17:11;3.07;;;2.23;;
29380;SDS011;16364;52.490;13.326;2022-09-21T01:19:53;2.20;;;2.00;;
29380;SDS011;16364;52.490;13.326;2022-09-21T01:30:14;3.00;;;2.38;;
29380;SDS011;16364;52.490;13.326;2022-09-21T01:33:26;1.90;;;1.80;;
29380;SDS011;16364;52.490;13.326;2022-09-21T01:35:30;3.07;;;2.80;;
29380;SDS011;16364;52.490;13.326;2022-09-21T01:38:01;2.30;;;2.10;;
29380;SDS011;16364;52.490;13.326;2022-09-21T01:40:32;2.27;;;2.17;;
29380;SDS011;16364;52.490;13.326;2022-09-21T01:42:58;4.27;;;2.57;;
29380;SDS011;16364;52.490;13.326;2022-09-21T01:45:28;4.03;;;2.13;;
29380;SDS011;16364;52.490;13.326;2022-09-21T01:47:55;2.47;;;2.30;;
29380;SDS011;16364;52.490;13.326;2022-09-21T01:50:21;2.33;;;2.23;;
29380;SDS011;16364;52.490;13.326;2022-09-21T01:53:00;4.10;;;2.73;;
29380;SDS011;16364;52.490;13.326;2022-09-21T01:55:30;3.50;;;2.30;;
29380;SDS011;16364;52.490;13.326;2022-09-21T01:57:59;5.07;;;3.70;;
29380;SDS011;16364;52.490;13.326;2022-09-21T02:00:26;2.40;;;2.20;;
29380;SDS011;16364;52.490;13.326;2022-09-21T02:03:08;2.70;;;2.40;;
29380;SDS011;16364;52.490;13.326;2022-09-21T02:05:36;2.90;;;2.00;;
29380;SDS011;16364;52.490;13.326;2022-09-21T02:08:02;2.43;;;2.23;;
29380;SDS011;16364;52.490;13.326;2022-09-21T02:10:31;2.40;;;2.20;;
29380;SDS011;16364;52.490;13.326;2022-09-21T02:12:57;3.00;;;2.30;;
29380;SDS011;16364;52.490;13.326;2022-09-21T02:15:26;2.20;;;2.00;;
29380;SDS011;16364;52.490;13.326;2022-09-21T02:18:00;2.10;;;1.90;;
29380;SDS011;16364;52.490;13.326;2022-09-21T02:20:30;3.20;;;2.77;;
29380;SDS011;16364;52.490;13.326;2022-09-21T02:23:09;2.47;;;2.27;;
29380;SDS011;16364;52.490;13.326;2022-09-21T02:25:56;2.80;;;2.20;;
29380;SDS011;16364;52.490;13.326;2022-09-21T02:30:56;2.83;;;2.57;;
29380;SDS011;16364;52.490;13.326;2022-09-21T02:33:28;2.70;;;2.10;;
29380;SDS011;16364;52.490;13.326;2022-09-21T02:38:32;2.40;;;2.20;;
29380;SDS011;16364;52.490;13.326;2022-09-21T02:41:08;2.80;;;2.53;;
29380;SDS011;16364;52.490;13.326;2022-09-21T02:46:07;3.67;;;2.47;;
29380;SDS011;16364;52.490;13.326;2022-09-21T02:48:35;2.77;;;2.57;;
29380;SDS011;16364;52.490;13.326;2022-09-21T02:51:12;3.60;;;2.63;;
29380;SDS011;16364;52.490;13.326;2022-09-21T02:53:38;3.10;;;2.53;;
29380;SDS011;16364;52.490;13.326;2022-09-21T02:56:05;5.10;;;2.90;;
29380;SDS011;16364;52.490;13.326;2022-09-21T02:58:33;3.13;;;2.93;;
29380;SDS011;16364;52.490;13.326;2022-09-21T03:00:59;5.60;;;3.57;;
29380;SDS011;16364;52.490;13.326;2022-09-21T03:03:24;3.03;;;2.73;;
29380;SDS011;16364;52.490;13.326;2022-09-21T03:05:51;5.30;;;3.00;;
29380;SDS011;16364;52.490;13.326;2022-09-21T03:08:16;3.33;;;2.60;;
29380;SDS011;16364;52.490;13.326;2022-09-21T03:10:42;2.27;;;2.10;;
29380;SDS011;16364;52.490;13.326;2022-09-21T03:13:07;4.13;;;2.50;;
29380;SDS011;16364;52.490;13.326;2022-09-21T03:15:33;2.50;;;2.30;;
29380;SDS011;16364;52.490;13.326;2022-09-21T03:17:58;3.67;;;3.47;;
29380;SDS011;16364;52.490;13.326;2022-09-21T03:20:24;3.50;;;3.30;;
29380;SDS011;16364;52.490;13.326;2022-09-21T03:22:49;2.90;;;2.70;;
29380;SDS011;16364;52.490;13.326;2022-09-21T03:25:15;2.83;;;2.63;;
29380;SDS011;16364;52.490;13.326;2022-09-21T03:27:40;3.00;;;2.80;;
29380;SDS011;16364;52.490;13.326;2022-09-21T03:30:06;2.80;;;2.60;;
29380;SDS011;16364;52.490;13.326;2022-09-21T03:32:32;3.00;;;2.60;;
29380;SDS011;16364;52.490;13.326;2022-09-21T03:34:57;2.70;;;2.27;;
29380;SDS011;16364;52.490;13.326;2022-09-21T03:37:23;3.33;;;2.70;;
29380;SDS011;16364;52.490;13.326;2022-09-21T03:39:48;6.10;;;2.73;;
29380;SDS011;16364;52.490;13.326;2022-09-21T03:42:14;3.17;;;2.87;;
29380;SDS011;16364;52.490;13.326;2022-09-21T03:44:39;2.80;;;2.53;;
29380;SDS011;16364;52.490;13.326;2022-09-21T03:47:05;3.90;;;2.60;;
29380;SDS011;16364;52.490;13.326;2022-09-21T03:49:30;4.30;;;2.27;;
29380;SDS011;16364;52.490;13.326;2022-09-21T03:51:56;2.30;;;2.03;;
29380;SDS011;16364;52.490;13.326;2022-09-21T03:54:22;2.23;;;2.03;;
29380;SDS011;16364;52.490;13.326;2022-09-21T03:56:47;3.13;;;2.83;;
29380;SDS011;16364;52.490;13.326;2022-09-21T03:59:12;2.93;;;2.27;;
29380;SDS011;16364;52.490;13.326;2022-09-21T04:01:37;3.50;;;2.60;;
29380;SDS011;16364;52.490;13.326;2022-09-21T04:04:03;3.07;;;2.70;;
29380;SDS011;16364;52.490;13.326;2022-09-21T04:06:28;2.83;;;2.40;;
29380;SDS011;16364;52.490;13.326;2022-09-21T04:08:54;3.20;;;2.67;;
29380;SDS011;16364;52.490;13.326;2022-09-21T04:11:20;3.33;;;3.03;;
29380;SDS011;16364;52.490;13.326;2022-09-21T04:13:50;2.73;;;2.53;;
29380;SDS011;16364;52.490;13.326;2022-09-21T04:16:20;3.57;;;2.70;;
29380;SDS011;16364;52.490;13.326;2022-09-21T04:18:46;3.90;;;2.30;;
29380;SDS011;16364;52.490;13.326;2022-09-21T04:21:14;3.17;;;2.47;;
29380;SDS011;16364;52.490;13.326;2022-09-21T04:23:39;2.43;;;2.10;;
29380;SDS011;16364;52.490;13.326;2022-09-21T04:26:05;2.23;;;2.13;;
29380;SDS011;16364;52.490;13.326;2022-09-21T04:28:30;2.93;;;2.73;;
29380;SDS011;16364;52.490;13.326;2022-09-21T04:30:56;2.97;;;2.73;;
29380;SDS011;16364;52.490;13.326;2022-09-21T04:33:21;4.73;;;3.00;;
29380;SDS011;16364;52.490;13.326;2022-09-21T04:35:52;3.40;;;3.10;;
29380;SDS011;16364;52.490;13.326;2022-09-21T04:38:17;3.20;;;2.93;;
29380;SDS011;16364;52.490;13.326;2022-09-21T04:40:42;3.23;;;3.03;;
29380;SDS011;16364;52.490;13.326;2022-09-21T04:43:08;3.50;;;2.87;;
29380;SDS011;16364;52.490;13.326;2022-09-21T04:45:33;4.93;;;2.70;;
29380;SDS011;16364;52.490;13.326;2022-09-21T04:47:58;4.30;;;3.50;;
29380;SDS011;16364;52.490;13.326;2022-09-21T04:50:23;5.70;;;3.10;;
29380;SDS011;16364;52.490;13.326;2022-09-21T04:52:48;4.97;;;3.10;;
29380;SDS011;16364;52.490;13.326;2022-09-21T04:55:14;2.57;;;2.37;;
29380;SDS011;16364;52.490;13.326;2022-09-21T04:57:39;3.00;;;2.73;;
29380;SDS011;16364;52.490;13.326;2022-09-21T05:00:04;4.83;;;3.87;;
29380;SDS011;16364;52.490;13.326;2022-09-21T05:02:30;4.53;;;3.30;;
29380;SDS011;16364;52.490;13.326;2022-09-21T05:04:55;10.33;;;5.10;;
29380;SDS011;16364;52.490;13.326;2022-09-21T05:07:20;8.93;;;4.00;;
29380;SDS011;16364;52.490;13.326;2022-09-21T05:09:45;4.30;;;4.00;;
29380;SDS011;16364;52.490;13.326;2022-09-21T05:12:32;5.53;;;4.37;;
29380;SDS011;16364;52.490;13.326;2022-09-21T05:14:58;6.10;;;4.03;;
29380;SDS011;16364;52.490;13.326;2022-09-21T05:17:23;7.57;;;5.00;;
29380;SDS011;16364;52.490;13.326;2022-09-21T05:19:49;5.17;;;4.63;;
29380;SDS011;16364;52.490;13.326;2022-09-21T05:22:14;4.03;;;3.73;;
29380;SDS011;16364;52.490;13.326;2022-09-21T05:24:39;4.60;;;4.07;;
29380;SDS011;16364;52.490;13.326;2022-09-21T05:27:05;8.50;;;4.13;;
29380;SDS011;16364;52.490;13.326;2022-09-21T05:29:30;4.97;;;4.50;;
29380;SDS011;16364;52.490;13.326;2022-09-21T05:32:17;4.67;;;3.67;;
29380;SDS011;16364;52.490;13.326;2022-09-21T05:37:10;4.22;;;3.92;;
29380;SDS011;16364;52.490;13.326;2022-09-21T05:39:39;4.97;;;3.43;;
29380;SDS011;16364;52.490;13.326;2022-09-21T05:42:04;4.20;;;3.80;;
29380;SDS011;16364;52.490;13.326;2022-09-21T05:44:30;5.30;;;4.10;;
29380;SDS011;16364;52.490;13.326;2022-09-21T05:56:52;4.30;;;3.70;;
29380;SDS011;16364;52.490;13.326;2022-09-21T06:01:52;9.10;;;5.22;;
29380;SDS011;16364;52.490;13.326;2022-09-21T06:04:20;6.97;;;5.07;;
29380;SDS011;16364;52.490;13.326;2022-09-21T06:06:45;5.10;;;3.90;;
29380;SDS011;16364;52.490;13.326;2022-09-21T06:09:10;6.97;;;3.80;;
29380;SDS011;16364;52.490;13.326;2022-09-21T06:11:36;5.90;;;4.43;;
29380;SDS011;16364;52.490;13.326;2022-09-21T06:14:02;4.43;;;4.03;;
29380;SDS011;16364;52.490;13.326;2022-09-21T06:16:35;5.53;;;4.33;;
29380;SDS011;16364;52.490;13.326;2022-09-21T06:19:00;4.20;;;3.80;;
29380;SDS011;16364;52.490;13.326;2022-09-21T06:21:26;7.83;;;4.73;;
29380;SDS011;16364;52.490;13.326;2022-09-21T06:23:51;5.20;;;3.83;;
29380;SDS011;16364;52.490;13.326;2022-09-21T06:26:19;6.37;;;4.17;;
29380;SDS011;16364;52.490;13.326;2022-09-21T06:28:44;4.70;;;4.20;;
29380;SDS011;16364;52.490;13.326;2022-09-21T06:31:09;4.70;;;3.93;;
29380;SDS011;16364;52.490;13.326;2022-09-21T06:33:34;8.83;;;5.00;;
29380;SDS011;16364;52.490;13.326;2022-09-21T06:36:01;4.40;;;4.10;;
29380;SDS011;16364;52.490;13.326;2022-09-21T06:38:27;5.67;;;5.17;;
29380;SDS011;16364;52.490;13.326;2022-09-21T06:40:59;6.90;;;6.20;;
29380;SDS011;16364;52.490;13.326;2022-09-21T06:43:24;5.03;;;4.30;;
29380;SDS011;16364;52.490;13.326;2022-09-21T06:45:53;10.10;;;4.80;;
29380;SDS011;16364;52.490;13.326;2022-09-21T06:48:18;5.67;;;5.13;;
29380;SDS011;16364;52.490;13.326;2022-09-21T06:50:44;10.87;;;5.00;;
29380;SDS011;16364;52.490;13.326;2022-09-21T06:53:09;5.87;;;4.70;;
29380;SDS011;16364;52.490;13.326;2022-09-21T06:55:34;6.53;;;5.43;;
29380;SDS011;16364;52.490;13.326;2022-09-21T06:58:02;5.93;;;5.30;;
29380;SDS011;16364;52.490;13.326;2022-09-21T07:00:28;6.20;;;4.70;;
29380;SDS011;16364;52.490;13.326;2022-09-21T07:02:53;5.70;;;4.50;;
29380;SDS011;16364;52.490;13.326;2022-09-21T07:05:18;5.00;;;4.43;;
29380;SDS011;16364;52.490;13.326;2022-09-21T07:07:43;5.90;;;4.70;;
29380;SDS011;16364;52.490;13.326;2022-09-21T07:10:09;4.97;;;3.47;;
29380;SDS011;16364;52.490;13.326;2022-09-21T07:12:34;6.93;;;4.00;;
29380;SDS011;16364;52.490;13.326;2022-09-21T07:15:03;5.30;;;4.20;;
29380;SDS011;16364;52.490;13.326;2022-09-21T07:17:35;8.90;;;4.97;;
29380;SDS011;16364;52.490;13.326;2022-09-21T07:20:01;4.53;;;4.10;;
29380;SDS011;16364;52.490;13.326;2022-09-21T07:22:29;10.53;;;4.63;;
29380;SDS011;16364;52.490;13.326;2022-09-21T07:24:55;4.67;;;4.00;;
29380;SDS011;16364;52.490;13.326;2022-09-21T07:27:20;5.20;;;3.90;;
29380;SDS011;16364;52.490;13.326;2022-09-21T07:29:45;5.90;;;4.00;;
29380;SDS011;16364;52.490;13.326;2022-09-21T07:32:11;4.37;;;4.07;;
29380;SDS011;16364;52.490;13.326;2022-09-21T07:34:37;4.80;;;3.10;;
29380;SDS011;16364;52.490;13.326;2022-09-21T07:37:02;5.17;;;4.60;;
29380;SDS011;16364;52.490;13.326;2022-09-21T07:39:28;6.70;;;4.00;;
29380;SDS011;16364;52.490;13.326;2022-09-21T07:41:53;5.93;;;5.13;;
29380;SDS011;16364;52.490;13.326;2022-09-21T07:44:18;4.80;;;4.40;;
29380;SDS011;16364;52.490;13.326;2022-09-21T07:46:47;6.77;;;5.20;;
29380;SDS011;16364;52.490;13.326;2022-09-21T07:49:12;11.03;;;6.47;;
29380;SDS011;16364;52.490;13.326;2022-09-21T07:51:37;10.93;;;5.07;;
29380;SDS011;16364;52.490;13.326;2022-09-21T07:54:03;6.57;;;4.77;;
29380;SDS011;16364;52.490;13.326;2022-09-21T07:56:29;7.47;;;4.73;;
29380;SDS011;16364;52.490;13.326;2022-09-21T07:58:54;4.53;;;4.13;;
29380;SDS011;16364;52.490;13.326;2022-09-21T08:01:32;4.03;;;3.73;;
29380;SDS011;16364;52.490;13.326;2022-09-21T08:03:57;7.97;;;4.73;;
29380;SDS011;16364;52.490;13.326;2022-09-21T08:06:24;4.90;;;4.30;;
29380;SDS011;16364;52.490;13.326;2022-09-21T08:08:50;4.43;;;4.13;;
29380;SDS011;16364;52.490;13.326;2022-09-21T08:11:16;6.60;;;4.23;;
29380;SDS011;16364;52.490;13.326;2022-09-21T08:13:41;4.70;;;3.87;;
29380;SDS011;16364;52.490;13.326;2022-09-21T08:16:07;4.73;;;4.03;;
29380;SDS011;16364;52.490;13.326;2022-09-21T08:18:35;4.23;;;3.80;;
29380;SDS011;16364;52.490;13.326;2022-09-21T08:21:00;4.77;;;4.27;;
29380;SDS011;16364;52.490;13.326;2022-09-21T08:23:26;5.03;;;3.93;;
29380;SDS011;16364;52.490;13.326;2022-09-21T08:26:00;3.53;;;3.17;;
29380;SDS011;16364;52.490;13.326;2022-09-21T08:28:26;5.33;;;4.27;;
29380;SDS011;16364;52.490;13.326;2022-09-21T08:30:52;3.73;;;3.40;;
29380;SDS011;16364;52.490;13.326;2022-09-21T08:33:17;5.80;;;3.20;;
29380;SDS011;16364;52.490;13.326;2022-09-21T08:35:42;4.43;;;3.90;;
29380;SDS011;16364;52.490;13.326;2022-09-21T08:38:07;3.77;;;3.40;;
29380;SDS011;16364;52.490;13.326;2022-09-21T08:40:33;5.67;;;5.07;;
29380;SDS011;16364;52.490;13.326;2022-09-21T08:43:01;4.40;;;4.00;;
29380;SDS011;16364;52.490;13.326;2022-09-21T08:45:32;5.67;;;2.80;;
29380;SDS011;16364;52.490;13.326;2022-09-21T08:47:58;5.60;;;3.50;;
29380;SDS011;16364;52.490;13.326;2022-09-21T08:50:35;4.73;;;3.50;;
29380;SDS011;16364;52.490;13.326;2022-09-21T08:53:12;8.23;;;3.73;;
29380;SDS011;16364;52.490;13.326;2022-09-21T08:55:38;7.10;;;3.53;;
29380;SDS011;16364;52.490;13.326;2022-09-21T08:58:05;6.50;;;4.10;;
29380;SDS011;16364;52.490;13.326;2022-09-21T09:00:39;4.43;;;4.00;;
29380;SDS011;16364;52.490;13.326;2022-09-21T09:03:12;4.40;;;3.73;;
29380;SDS011;16364;52.490;13.326;2022-09-21T09:16:17;3.50;;;3.30;;
29380;SDS011;16364;52.490;13.326;2022-09-21T09:18:53;4.73;;;4.20;;
29380;SDS011;16364;52.490;13.326;2022-09-21T09:21:24;4.10;;;3.73;;
29380;SDS011;16364;52.490;13.326;2022-09-21T09:23:53;5.57;;;4.13;;
29380;SDS011;16364;52.490;13.326;2022-09-21T09:26:35;3.40;;;3.10;;
29380;SDS011;16364;52.490;13.326;2022-09-21T09:29:07;6.07;;;4.73;;
29380;SDS011;16364;52.490;13.326;2022-09-21T09:31:36;5.17;;;4.53;;
29380;SDS011;16364;52.490;13.326;2022-09-21T09:34:10;3.70;;;3.37;;
29380;SDS011;16364;52.490;13.326;2022-09-21T09:36:37;4.00;;;3.10;;
29380;SDS011;16364;52.490;13.326;2022-09-21T09:39:10;4.47;;;4.07;;
29380;SDS011;16364;52.490;13.326;2022-09-21T09:46:44;3.17;;;2.80;;
29380;SDS011;16364;52.490;13.326;2022-09-21T09:51:55;3.10;;;2.90;;
29380;SDS011;16364;52.490;13.326;2022-09-21T09:54:20;3.63;;;3.00;;
29380;SDS011;16364;52.490;13.326;2022-09-21T09:56:48;2.87;;;2.67;;
29380;SDS011;16364;52.490;13.326;2022-09-21T10:01:42;2.77;;;2.23;;
29380;SDS011;16364;52.490;13.326;2022-09-21T10:04:13;2.97;;;2.77;;
29380;SDS011;16364;52.490;13.326;2022-09-21T10:06:38;4.83;;;2.33;;
29380;SDS011;16364;52.490;13.326;2022-09-21T10:09:22;3.43;;;2.30;;
29380;SDS011;16364;52.490;13.326;2022-09-21T10:11:48;3.13;;;2.67;;
29380;SDS011;16364;52.490;13.326;2022-09-21T10:14:16;3.80;;;1.97;;
29380;SDS011;16364;52.490;13.326;2022-09-21T10:16:42;2.50;;;2.30;;
29380;SDS011;16364;52.490;13.326;2022-09-21T10:19:14;3.50;;;2.10;;
29380;SDS011;16364;52.490;13.326;2022-09-21T10:21:41;4.20;;;2.33;;
29380;SDS011;16364;52.490;13.326;2022-09-21T10:29:18;1.70;;;1.60;;
29380;SDS011;16364;52.490;13.326;2022-09-21T10:32:05;1.70;;;1.30;;
29380;SDS011;16364;52.490;13.326;2022-09-21T10:35:27;1.30;;;1.20;;
29380;SDS011;16364;52.490;13.326;2022-09-21T10:37:28;3.20;;;1.27;;
29380;SDS011;16364;52.490;13.326;2022-09-21T10:39:54;1.60;;;1.50;;
29380;SDS011;16364;52.490;13.326;2022-09-21T10:42:21;1.30;;;1.17;;
29380;SDS011;16364;52.490;13.326;2022-09-21T10:44:48;1.50;;;1.20;;
29380;SDS011;16364;52.490;13.326;2022-09-21T10:49:41;1.00;;;0.90;;
29380;SDS011;16364;52.490;13.326;2022-09-21T10:52:06;2.03;;;1.33;;
29380;SDS011;16364;52.490;13.326;2022-09-21T10:54:32;1.80;;;0.93;;
29380;SDS011;16364;52.490;13.326;2022-09-21T10:57:01;0.90;;;0.80;;
29380;SDS011;16364;52.490;13.326;2022-09-21T10:59:28;2.43;;;1.33;;
29380;SDS011;16364;52.490;13.326;2022-09-21T11:01:55;1.43;;;1.00;;
29380;SDS011;16364;52.490;13.326;2022-09-21T11:04:40;1.17;;;0.83;;
29380;SDS011;16364;52.490;13.326;2022-09-21T11:07:08;2.27;;;0.97;;
29380;SDS011;16364;52.490;13.326;2022-09-21T11:14:48;2.60;;;2.10;;
29380;SDS011;16364;52.490;13.326;2022-09-21T11:19:56;2.50;;;2.30;;
29380;SDS011;16364;52.490;13.326;2022-09-21T11:22:44;1.57;;;1.17;;
29380;SDS011;16364;52.490;13.326;2022-09-21T11:27:40;1.30;;;1.20;;
29380;SDS011;16364;52.490;13.326;2022-09-21T11:30:10;1.73;;;1.37;;
29380;SDS011;16364;52.490;13.326;2022-09-21T11:35:34;1.33;;;1.23;;
29380;SDS011;16364;52.490;13.326;2022-09-21T11:45:36;1.73;;;1.02;;
29380;SDS011;16364;52.490;13.326;2022-09-21T11:50:51;1.83;;;1.00;;
29380;SDS011;16364;52.490;13.326;2022-09-21T11:58:50;1.23;;;0.83;;
29380;SDS011;16364;52.490;13.326;2022-09-21T12:04:15;1.53;;;1.13;;
29380;SDS011;16364;52.490;13.326;2022-09-21T12:14:20;2.17;;;2.00;;
29380;SDS011;16364;52.490;13.326;2022-09-21T12:16:54;1.33;;;1.23;;
29380;SDS011;16364;52.490;13.326;2022-09-21T12:19:31;1.67;;;1.57;;
29380;SDS011;16364;52.490;13.326;2022-09-21T12:22:02;1.40;;;1.30;;
29380;SDS011;16364;52.490;13.326;2022-09-21T12:24:32;1.30;;;1.13;;
29380;SDS011;16364;52.490;13.326;2022-09-21T12:27:00;2.13;;;1.40;;
29380;SDS011;16364;52.490;13.326;2022-09-21T12:29:43;1.00;;;0.90;;
29380;SDS011;16364;52.490;13.326;2022-09-21T12:34:47;2.40;;;1.20;;
29380;SDS011;16364;52.490;13.326;2022-09-21T12:37:22;2.17;;;1.30;;
29380;SDS011;16364;52.490;13.326;2022-09-21T12:39:52;1.10;;;1.00;;
29380;SDS011;16364;52.490;13.326;2022-09-21T12:42:28;1.23;;;1.13;;
29380;SDS011;16364;52.490;13.326;2022-09-21T12:44:55;1.60;;;0.97;;
29380;SDS011;16364;52.490;13.326;2022-09-21T12:49:51;1.43;;;1.23;;
29380;SDS011;16364;52.490;13.326;2022-09-21T12:52:19;4.10;;;1.10;;
29380;SDS011;16364;52.490;13.326;2022-09-21T12:57:29;0.97;;;0.87;;
29380;SDS011;16364;52.490;13.326;2022-09-21T13:00:03;0.80;;;0.80;;
29380;SDS011;16364;52.490;13.326;2022-09-21T13:08:04;1.80;;;0.90;;
29380;SDS011;16364;52.490;13.326;2022-09-21T13:12:57;1.67;;;1.00;;
29380;SDS011;16364;52.490;13.326;2022-09-21T13:15:26;1.20;;;1.10;;
29380;SDS011;16364;52.490;13.326;2022-09-21T13:18:37;1.47;;;1.07;;
29380;SDS011;16364;52.490;13.326;2022-09-21T13:20:37;0.77;;;0.77;;
29380;SDS011;16364;52.490;13.326;2022-09-21T13:23:03;1.90;;;0.90;;
29380;SDS011;16364;52.490;13.326;2022-09-21T13:25:29;4.70;;;1.00;;
29380;SDS011;16364;52.490;13.326;2022-09-21T13:28:00;1.90;;;1.00;;
29380;SDS011;16364;52.490;13.326;2022-09-21T13:32:56;2.33;;;1.00;;
29380;SDS011;16364;52.490;13.326;2022-09-21T13:48:58;2.10;;;0.93;;
29380;SDS011;16364;52.490;13.326;2022-09-21T13:51:26;0.80;;;0.80;;
29380;SDS011;16364;52.490;13.326;2022-09-21T13:53:53;3.67;;;0.90;;
29380;SDS011;16364;52.490;13.326;2022-09-21T13:56:19;0.70;;;0.70;;
29380;SDS011;16364;52.490;13.326;2022-09-21T13:58:49;1.57;;;0.80;;
29380;SDS011;16364;52.490;13.326;2022-09-21T14:01:17;1.40;;;1.30;;
29380;SDS011;16364;52.490;13.326;2022-09-21T14:03:44;4.40;;;1.10;;
29380;SDS011;16364;52.490;13.326;2022-09-21T14:06:31;1.27;;;0.80;;
29380;SDS011;16364;52.490;13.326;2022-09-21T14:09:03;1.00;;;0.90;;
29380;SDS011;16364;52.490;13.326;2022-09-21T14:11:30;1.17;;;1.00;;
29380;SDS011;16364;52.490;13.326;2022-09-21T14:14:05;1.20;;;0.83;;
29380;SDS011;16364;52.490;13.326;2022-09-21T14:19:35;1.00;;;0.90;;
29380;SDS011;16364;52.490;13.326;2022-09-21T14:24:34;1.53;;;0.90;;
29380;SDS011;16364;52.490;13.326;2022-09-21T14:27:24;1.07;;;0.97;;
29380;SDS011;16364;52.490;13.326;2022-09-21T14:32:21;1.80;;;0.90;;
29380;SDS011;16364;52.490;13.326;2022-09-21T14:34:48;1.20;;;0.80;;
29380;SDS011;16364;52.490;13.326;2022-09-21T14:37:19;1.00;;;0.80;;
29380;SDS011;16364;52.490;13.326;2022-09-21T14:39:45;0.70;;;0.70;;
29380;SDS011;16364;52.490;13.326;2022-09-21T14:42:13;1.60;;;0.90;;
29380;SDS011;16364;52.490;13.326;2022-09-21T14:44:39;1.80;;;0.80;;
29380;SDS011;16364;52.490;13.326;2022-09-21T14:47:09;0.90;;;0.80;;
29380;SDS011;16364;52.490;13.326;2022-09-21T14:49:58;1.47;;;0.80;;
29380;SDS011;16364;52.490;13.326;2022-09-21T14:52:33;1.20;;;0.90;;
29380;SDS011;16364;52.490;13.326;2022-09-21T14:55:14;1.47;;;1.20;;
29380;SDS011;16364;52.490;13.326;2022-09-21T14:57:44;1.07;;;0.93;;
29380;SDS011;16364;52.490;13.326;2022-09-21T15:02:45;1.73;;;1.10;;
29380;SDS011;16364;52.490;13.326;2022-09-21T15:05:18;2.33;;;1.20;;
29380;SDS011;16364;52.490;13.326;2022-09-21T15:10:47;1.70;;;1.00;;
29380;SDS011;16364;52.490;13.326;2022-09-21T15:18:31;2.03;;;1.00;;
29380;SDS011;16364;52.490;13.326;2022-09-21T15:21:01;1.40;;;0.87;;
29380;SDS011;16364;52.490;13.326;2022-09-21T15:23:30;0.90;;;0.80;;
29380;SDS011;16364;52.490;13.326;2022-09-21T15:26:00;1.13;;;0.97;;
29380;SDS011;16364;52.490;13.326;2022-09-21T15:28:33;1.27;;;1.10;;
29380;SDS011;16364;52.490;13.326;2022-09-21T15:30:59;2.17;;;1.20;;
29380;SDS011;16364;52.490;13.326;2022-09-21T15:33:24;2.30;;;0.90;;
29380;SDS011;16364;52.490;13.326;2022-09-21T15:35:51;3.27;;;1.10;;
29380;SDS011;16364;52.490;13.326;2022-09-21T15:38:28;1.00;;;0.90;;
29380;SDS011;16364;52.490;13.326;2022-09-21T15:40:54;3.90;;;2.07;;
29380;SDS011;16364;52.490;13.326;2022-09-21T15:43:19;2.33;;;1.53;;
29380;SDS011;16364;52.490;13.326;2022-09-21T15:46:04;1.30;;;1.20;;
29380;SDS011;16364;52.490;13.326;2022-09-21T15:51:09;1.90;;;1.13;;
29380;SDS011;16364;52.490;13.326;2022-09-21T15:53:41;1.97;;;1.10;;
29380;SDS011;16364;52.490;13.326;2022-09-21T15:56:15;1.77;;;1.03;;
29380;SDS011;16364;52.490;13.326;2022-09-21T15:58:41;1.63;;;1.00;;
29380;SDS011;16364;52.490;13.326;2022-09-21T16:01:11;1.30;;;1.10;;
29380;SDS011;16364;52.490;13.326;2022-09-21T16:03:37;2.10;;;1.00;;
29380;SDS011;16364;52.490;13.326;2022-09-21T16:06:25;1.00;;;0.90;;
29380;SDS011;16364;52.490;13.326;2022-09-21T16:08:48;1.00;;;0.90;;
29380;SDS011;16364;52.490;13.326;2022-09-21T16:14:03;5.03;;;1.10;;
29380;SDS011;16364;52.490;13.326;2022-09-21T16:22:09;2.10;;;1.20;;
29380;SDS011;16364;52.490;13.326;2022-09-21T16:24:35;1.97;;;1.40;;
29380;SDS011;16364;52.490;13.326;2022-09-21T16:27:14;5.30;;;4.67;;
29380;SDS011;16364;52.490;13.326;2022-09-21T16:29:40;1.90;;;1.60;;
29380;SDS011;16364;52.490;13.326;2022-09-21T16:34:47;1.50;;;1.30;;
29380;SDS011;16364;52.490;13.326;2022-09-21T16:39:43;2.43;;;1.70;;
29380;SDS011;16364;52.490;13.326;2022-09-21T16:42:09;1.60;;;1.40;;
29380;SDS011;16364;52.490;13.326;2022-09-21T16:44:35;1.50;;;1.40;;
29380;SDS011;16364;52.490;13.326;2022-09-21T16:47:08;1.30;;;1.20;;
29380;SDS011;16364;52.490;13.326;2022-09-21T16:49:35;2.23;;;1.20;;
29380;SDS011;16364;52.490;13.326;2022-09-21T16:52:00;1.20;;;1.10;;
29380;SDS011;16364;52.490;13.326;2022-09-21T16:54:26;1.37;;;1.27;;
29380;SDS011;16364;52.490;13.326;2022-09-21T16:56:52;3.60;;;1.40;;
29380;SDS011;16364;52.490;13.326;2022-09-21T16:59:18;2.17;;;1.40;;
29380;SDS011;16364;52.490;13.326;2022-09-21T17:01:45;1.87;;;1.73;;
29380;SDS011;16364;52.490;13.326;2022-09-21T17:04:13;1.80;;;1.70;;
29380;SDS011;16364;52.490;13.326;2022-09-21T17:06:38;1.70;;;1.60;;
29380;SDS011;16364;52.490;13.326;2022-09-21T17:11:41;2.83;;;1.90;;
29380;SDS011;16364;52.490;13.326;2022-09-21T17:14:09;1.53;;;1.43;;
29380;SDS011;16364;52.490;13.326;2022-09-21T17:16:37;2.23;;;1.37;;
29380;SDS011;16364;52.490;13.326;2022-09-21T17:19:02;1.90;;;1.40;;
29380;SDS011;16364;52.490;13.326;2022-09-21T17:21:27;2.13;;;1.57;;
29380;SDS011;16364;52.490;13.326;2022-09-21T17:23:53;2.87;;;2.30;;
29380;SDS011;16364;52.490;13.326;2022-09-21T17:26:18;2.30;;;1.73;;
29380;SDS011;16364;52.490;13.326;2022-09-21T17:28:45;2.10;;;1.90;;
29380;SDS011;16364;52.490;13.326;2022-09-21T17:31:10;1.93;;;1.70;;
29380;SDS011;16364;52.490;13.326;2022-09-21T17:33:36;2.47;;;1.83;;